sensor_id;sensor_type;location;lat;lon;timestamp;P1;durP1;ratioP1;P2;durP2;ratioP2
18748;SDS011;9503;53.560;10.246;2023-06-24T00:02:09;19.67;;;12.88;;
18748;SDS011;9503;53.560;10.246;2023-06-24T00:04:38;21.63;;;14.00;;
18748;SDS011;9503;53.560;10.246;2023-06-24T00:07:04;21.75;;;14.20;;
18748;SDS011;9503;53.560;10.246;2023-06-24T00:09:31;20.40;;;12.70;;
18748;SDS011;9503;53.560;10.246;2023-06-24T00:11:58;19.38;;;13.32;;
18748;SDS011;9503;53.560;10.246;2023-06-24T00:14:25;21.42;;;13.98;;
18748;SDS011;9503;53.560;10.246;2023-06-24T00:16:54;20.88;;;13.30;;
18748;SDS011;9503;53.560;10.246;2023-06-24T00:19:22;20.27;;;13.90;;
18748;SDS011;9503;53.560;10.246;2023-06-24T00:21:52;20.75;;;13.57;;
18748;SDS011;9503;53.560;10.246;2023-06-24T00:24:19;20.33;;;13.20;;
18748;SDS011;9503;53.560;10.246;2023-06-24T00:26:50;23.90;;;14.15;;
18748;SDS011;9503;53.560;10.246;2023-06-24T00:29:17;26.13;;;14.48;;
18748;SDS011;9503;53.560;10.246;2023-06-24T00:31:43;19.60;;;12.55;;
18748;SDS011;9503;53.560;10.246;2023-06-24T00:34:10;24.92;;;14.20;;
18748;SDS011;9503;53.560;10.246;2023-06-24T00:36:37;23.17;;;14.38;;
18748;SDS011;9503;53.560;10.246;2023-06-24T00:39:05;19.30;;;13.57;;
18748;SDS011;9503;53.560;10.246;2023-06-24T00:41:32;22.63;;;15.52;;
18748;SDS011;9503;53.560;10.246;2023-06-24T00:44:00;21.98;;;13.65;;
18748;SDS011;9503;53.560;10.246;2023-06-24T00:46:27;23.60;;;13.90;;
18748;SDS011;9503;53.560;10.246;2023-06-24T00:48:58;22.48;;;13.75;;
18748;SDS011;9503;53.560;10.246;2023-06-24T00:51:25;20.17;;;13.95;;
18748;SDS011;9503;53.560;10.246;2023-06-24T00:53:56;19.80;;;12.98;;
18748;SDS011;9503;53.560;10.246;2023-06-24T00:56:25;24.83;;;13.80;;
18748;SDS011;9503;53.560;10.246;2023-06-24T00:58:55;23.88;;;14.50;;
18748;SDS011;9503;53.560;10.246;2023-06-24T01:01:26;23.00;;;15.50;;
18748;SDS011;9503;53.560;10.246;2023-06-24T01:03:57;26.90;;;15.38;;
18748;SDS011;9503;53.560;10.246;2023-06-24T01:06:24;24.90;;;15.93;;
18748;SDS011;9503;53.560;10.246;2023-06-24T01:08:53;26.27;;;16.08;;
18748;SDS011;9503;53.560;10.246;2023-06-24T01:11:21;21.27;;;13.95;;
18748;SDS011;9503;53.560;10.246;2023-06-24T01:13:50;28.17;;;15.87;;
18748;SDS011;9503;53.560;10.246;2023-06-24T01:16:18;23.58;;;14.90;;
18748;SDS011;9503;53.560;10.246;2023-06-24T01:18:52;22.43;;;14.83;;
18748;SDS011;9503;53.560;10.246;2023-06-24T01:21:30;26.88;;;16.83;;
18748;SDS011;9503;53.560;10.246;2023-06-24T01:27:07;23.45;;;15.98;;
18748;SDS011;9503;53.560;10.246;2023-06-24T01:29:50;24.90;;;14.77;;
18748;SDS011;9503;53.560;10.246;2023-06-24T01:32:24;31.00;;;15.30;;
18748;SDS011;9503;53.560;10.246;2023-06-24T01:34:56;20.33;;;14.50;;
18748;SDS011;9503;53.560;10.246;2023-06-24T01:37:26;23.80;;;14.97;;
18748;SDS011;9503;53.560;10.246;2023-06-24T01:40:00;22.83;;;15.83;;
18748;SDS011;9503;53.560;10.246;2023-06-24T01:42:35;26.60;;;16.43;;
18748;SDS011;9503;53.560;10.246;2023-06-24T01:45:03;26.57;;;16.50;;
18748;SDS011;9503;53.560;10.246;2023-06-24T01:47:33;27.23;;;17.60;;
18748;SDS011;9503;53.560;10.246;2023-06-24T01:50:01;27.53;;;16.23;;
18748;SDS011;9503;53.560;10.246;2023-06-24T01:52:30;24.80;;;16.27;;
18748;SDS011;9503;53.560;10.246;2023-06-24T01:55:00;28.83;;;16.73;;
18748;SDS011;9503;53.560;10.246;2023-06-24T01:57:29;28.17;;;16.40;;
18748;SDS011;9503;53.560;10.246;2023-06-24T01:59:59;26.43;;;15.60;;
18748;SDS011;9503;53.560;10.246;2023-06-24T02:02:31;24.00;;;14.50;;
18748;SDS011;9503;53.560;10.246;2023-06-24T02:05:00;22.23;;;14.77;;
18748;SDS011;9503;53.560;10.246;2023-06-24T02:07:28;19.47;;;13.33;;
18748;SDS011;9503;53.560;10.246;2023-06-24T02:09:56;23.47;;;14.80;;
18748;SDS011;9503;53.560;10.246;2023-06-24T02:12:24;26.57;;;15.40;;
18748;SDS011;9503;53.560;10.246;2023-06-24T02:14:54;22.50;;;14.50;;
18748;SDS011;9503;53.560;10.246;2023-06-24T02:17:22;20.67;;;14.47;;
18748;SDS011;9503;53.560;10.246;2023-06-24T02:19:50;25.00;;;14.67;;
18748;SDS011;9503;53.560;10.246;2023-06-24T02:22:19;21.07;;;13.67;;
18748;SDS011;9503;53.560;10.246;2023-06-24T02:24:47;23.90;;;14.93;;
18748;SDS011;9503;53.560;10.246;2023-06-24T02:27:15;19.33;;;12.37;;
18748;SDS011;9503;53.560;10.246;2023-06-24T02:29:43;21.43;;;14.67;;
18748;SDS011;9503;53.560;10.246;2023-06-24T02:32:11;23.70;;;13.83;;
18748;SDS011;9503;53.560;10.246;2023-06-24T02:34:38;22.73;;;14.07;;
18748;SDS011;9503;53.560;10.246;2023-06-24T02:37:05;23.17;;;13.97;;
18748;SDS011;9503;53.560;10.246;2023-06-24T02:39:33;21.10;;;14.30;;
18748;SDS011;9503;53.560;10.246;2023-06-24T02:42:03;21.47;;;13.07;;
18748;SDS011;9503;53.560;10.246;2023-06-24T02:44:30;20.40;;;13.70;;
18748;SDS011;9503;53.560;10.246;2023-06-24T02:46:57;19.53;;;13.07;;
18748;SDS011;9503;53.560;10.246;2023-06-24T02:49:24;22.87;;;13.67;;
18748;SDS011;9503;53.560;10.246;2023-06-24T02:51:51;18.43;;;12.20;;
18748;SDS011;9503;53.560;10.246;2023-06-24T02:54:18;19.27;;;12.33;;
18748;SDS011;9503;53.560;10.246;2023-06-24T02:56:46;18.33;;;11.27;;
18748;SDS011;9503;53.560;10.246;2023-06-24T02:59:14;19.83;;;12.20;;
18748;SDS011;9503;53.560;10.246;2023-06-24T03:01:40;17.67;;;12.43;;
18748;SDS011;9503;53.560;10.246;2023-06-24T03:04:10;18.37;;;13.10;;
18748;SDS011;9503;53.560;10.246;2023-06-24T03:06:38;23.00;;;13.63;;
18748;SDS011;9503;53.560;10.246;2023-06-24T03:09:05;20.13;;;13.57;;
18748;SDS011;9503;53.560;10.246;2023-06-24T03:11:39;21.10;;;13.60;;
18748;SDS011;9503;53.560;10.246;2023-06-24T03:14:08;18.70;;;12.90;;
18748;SDS011;9503;53.560;10.246;2023-06-24T03:16:35;16.13;;;11.40;;
18748;SDS011;9503;53.560;10.246;2023-06-24T03:19:03;20.53;;;13.80;;
18748;SDS011;9503;53.560;10.246;2023-06-24T03:21:30;23.50;;;14.00;;
18748;SDS011;9503;53.560;10.246;2023-06-24T03:23:57;21.13;;;13.17;;
18748;SDS011;9503;53.560;10.246;2023-06-24T03:26:24;25.23;;;14.00;;
18748;SDS011;9503;53.560;10.246;2023-06-24T03:28:51;22.23;;;13.70;;
18748;SDS011;9503;53.560;10.246;2023-06-24T03:31:19;22.07;;;13.47;;
18748;SDS011;9503;53.560;10.246;2023-06-24T03:33:48;20.20;;;13.50;;
18748;SDS011;9503;53.560;10.246;2023-06-24T03:36:15;19.37;;;12.77;;
18748;SDS011;9503;53.560;10.246;2023-06-24T03:38:41;23.83;;;13.20;;
18748;SDS011;9503;53.560;10.246;2023-06-24T03:41:08;21.57;;;14.40;;
18748;SDS011;9503;53.560;10.246;2023-06-24T03:43:35;25.80;;;15.47;;
18748;SDS011;9503;53.560;10.246;2023-06-24T03:46:01;19.10;;;12.90;;
18748;SDS011;9503;53.560;10.246;2023-06-24T03:48:29;21.00;;;13.27;;
18748;SDS011;9503;53.560;10.246;2023-06-24T03:50:56;19.10;;;12.67;;
18748;SDS011;9503;53.560;10.246;2023-06-24T03:53:23;18.93;;;12.53;;
18748;SDS011;9503;53.560;10.246;2023-06-24T03:55:49;20.07;;;12.77;;
18748;SDS011;9503;53.560;10.246;2023-06-24T03:58:16;19.02;;;12.68;;
18748;SDS011;9503;53.560;10.246;2023-06-24T04:00:46;22.38;;;14.10;;
18748;SDS011;9503;53.560;10.246;2023-06-24T04:03:14;21.13;;;12.80;;
18748;SDS011;9503;53.560;10.246;2023-06-24T04:05:42;18.05;;;11.80;;
18748;SDS011;9503;53.560;10.246;2023-06-24T04:08:09;16.45;;;11.52;;
18748;SDS011;9503;53.560;10.246;2023-06-24T04:10:35;17.70;;;12.98;;
18748;SDS011;9503;53.560;10.246;2023-06-24T04:13:02;18.42;;;11.45;;
18748;SDS011;9503;53.560;10.246;2023-06-24T04:15:28;17.95;;;11.95;;
18748;SDS011;9503;53.560;10.246;2023-06-24T04:17:55;17.75;;;11.85;;
18748;SDS011;9503;53.560;10.246;2023-06-24T04:20:22;19.58;;;11.52;;
18748;SDS011;9503;53.560;10.246;2023-06-24T04:22:50;14.07;;;10.30;;
18748;SDS011;9503;53.560;10.246;2023-06-24T04:25:16;15.30;;;10.80;;
18748;SDS011;9503;53.560;10.246;2023-06-24T04:27:43;17.38;;;10.98;;
18748;SDS011;9503;53.560;10.246;2023-06-24T04:30:10;16.67;;;9.90;;
18748;SDS011;9503;53.560;10.246;2023-06-24T04:32:37;14.25;;;9.35;;
18748;SDS011;9503;53.560;10.246;2023-06-24T04:35:04;13.80;;;9.30;;
18748;SDS011;9503;53.560;10.246;2023-06-24T04:37:31;14.68;;;9.48;;
18748;SDS011;9503;53.560;10.246;2023-06-24T04:39:59;10.77;;;8.52;;
18748;SDS011;9503;53.560;10.246;2023-06-24T04:42:25;12.73;;;8.98;;
18748;SDS011;9503;53.560;10.246;2023-06-24T04:44:52;10.88;;;8.15;;
18748;SDS011;9503;53.560;10.246;2023-06-24T04:47:18;10.73;;;8.32;;
18748;SDS011;9503;53.560;10.246;2023-06-24T04:49:45;10.48;;;7.20;;
18748;SDS011;9503;53.560;10.246;2023-06-24T04:52:12;10.30;;;7.38;;
18748;SDS011;9503;53.560;10.246;2023-06-24T04:54:38;13.27;;;7.05;;
18748;SDS011;9503;53.560;10.246;2023-06-24T04:57:08;10.77;;;7.20;;
18748;SDS011;9503;53.560;10.246;2023-06-24T04:59:36;9.43;;;6.68;;
18748;SDS011;9503;53.560;10.246;2023-06-24T05:02:03;10.23;;;6.53;;
18748;SDS011;9503;53.560;10.246;2023-06-24T05:04:30;11.68;;;6.63;;
18748;SDS011;9503;53.560;10.246;2023-06-24T05:06:56;12.43;;;7.35;;
18748;SDS011;9503;53.560;10.246;2023-06-24T05:09:23;9.30;;;6.45;;
18748;SDS011;9503;53.560;10.246;2023-06-24T05:11:50;9.45;;;6.82;;
18748;SDS011;9503;53.560;10.246;2023-06-24T05:14:17;11.65;;;6.75;;
18748;SDS011;9503;53.560;10.246;2023-06-24T05:16:44;8.52;;;5.88;;
18748;SDS011;9503;53.560;10.246;2023-06-24T05:19:11;9.25;;;5.70;;
18748;SDS011;9503;53.560;10.246;2023-06-24T05:21:37;7.45;;;5.45;;
18748;SDS011;9503;53.560;10.246;2023-06-24T05:24:04;10.43;;;5.45;;
18748;SDS011;9503;53.560;10.246;2023-06-24T05:26:31;9.25;;;5.43;;
18748;SDS011;9503;53.560;10.246;2023-06-24T05:28:58;8.73;;;5.35;;
18748;SDS011;9503;53.560;10.246;2023-06-24T05:31:26;7.18;;;5.30;;
18748;SDS011;9503;53.560;10.246;2023-06-24T05:33:52;8.68;;;5.60;;
18748;SDS011;9503;53.560;10.246;2023-06-24T05:36:19;7.72;;;5.72;;
18748;SDS011;9503;53.560;10.246;2023-06-24T05:38:46;6.90;;;5.10;;
18748;SDS011;9503;53.560;10.246;2023-06-24T05:41:13;6.20;;;4.88;;
18748;SDS011;9503;53.560;10.246;2023-06-24T05:43:42;6.05;;;4.50;;
18748;SDS011;9503;53.560;10.246;2023-06-24T05:46:09;7.75;;;5.00;;
18748;SDS011;9503;53.560;10.246;2023-06-24T05:48:38;12.48;;;4.65;;
18748;SDS011;9503;53.560;10.246;2023-06-24T05:51:07;8.00;;;5.13;;
18748;SDS011;9503;53.560;10.246;2023-06-24T05:53:34;7.72;;;4.90;;
18748;SDS011;9503;53.560;10.246;2023-06-24T05:56:00;7.22;;;5.10;;
18748;SDS011;9503;53.560;10.246;2023-06-24T05:58:27;6.15;;;4.85;;
18748;SDS011;9503;53.560;10.246;2023-06-24T06:00:54;8.18;;;5.22;;
18748;SDS011;9503;53.560;10.246;2023-06-24T06:03:20;5.45;;;4.45;;
18748;SDS011;9503;53.560;10.246;2023-06-24T06:05:48;7.95;;;4.75;;
18748;SDS011;9503;53.560;10.246;2023-06-24T06:08:15;8.00;;;4.00;;
18748;SDS011;9503;53.560;10.246;2023-06-24T06:10:42;8.07;;;4.32;;
18748;SDS011;9503;53.560;10.246;2023-06-24T06:13:08;7.22;;;4.20;;
18748;SDS011;9503;53.560;10.246;2023-06-24T06:15:35;6.22;;;4.10;;
18748;SDS011;9503;53.560;10.246;2023-06-24T06:18:01;9.32;;;4.95;;
18748;SDS011;9503;53.560;10.246;2023-06-24T06:20:28;7.32;;;4.40;;
18748;SDS011;9503;53.560;10.246;2023-06-24T06:22:56;6.72;;;4.65;;
18748;SDS011;9503;53.560;10.246;2023-06-24T06:25:23;5.45;;;4.43;;
18748;SDS011;9503;53.560;10.246;2023-06-24T06:27:49;7.97;;;4.43;;
18748;SDS011;9503;53.560;10.246;2023-06-24T06:30:16;6.32;;;4.50;;
18748;SDS011;9503;53.560;10.246;2023-06-24T06:32:43;7.78;;;4.72;;
18748;SDS011;9503;53.560;10.246;2023-06-24T06:35:10;10.40;;;4.60;;
18748;SDS011;9503;53.560;10.246;2023-06-24T06:37:36;8.00;;;4.82;;
18748;SDS011;9503;53.560;10.246;2023-06-24T06:40:05;10.30;;;4.50;;
18748;SDS011;9503;53.560;10.246;2023-06-24T06:42:33;5.60;;;4.10;;
18748;SDS011;9503;53.560;10.246;2023-06-24T06:44:59;11.32;;;4.35;;
18748;SDS011;9503;53.560;10.246;2023-06-24T06:47:26;11.00;;;4.70;;
18748;SDS011;9503;53.560;10.246;2023-06-24T06:49:52;6.03;;;3.88;;
18748;SDS011;9503;53.560;10.246;2023-06-24T06:52:19;9.27;;;3.85;;
18748;SDS011;9503;53.560;10.246;2023-06-24T06:54:46;5.20;;;4.57;;
18748;SDS011;9503;53.560;10.246;2023-06-24T06:57:14;8.00;;;4.28;;
18748;SDS011;9503;53.560;10.246;2023-06-24T06:59:41;10.02;;;4.60;;
18748;SDS011;9503;53.560;10.246;2023-06-24T07:02:07;8.10;;;4.47;;
18748;SDS011;9503;53.560;10.246;2023-06-24T07:04:34;6.13;;;4.10;;
18748;SDS011;9503;53.560;10.246;2023-06-24T07:07:00;8.18;;;3.88;;
18748;SDS011;9503;53.560;10.246;2023-06-24T07:09:27;5.72;;;3.50;;
18748;SDS011;9503;53.560;10.246;2023-06-24T07:11:54;9.02;;;4.40;;
18748;SDS011;9503;53.560;10.246;2023-06-24T07:14:22;7.70;;;4.00;;
18748;SDS011;9503;53.560;10.246;2023-06-24T07:16:48;5.57;;;3.72;;
18748;SDS011;9503;53.560;10.246;2023-06-24T07:19:15;7.60;;;3.80;;
18748;SDS011;9503;53.560;10.246;2023-06-24T07:21:42;5.50;;;4.05;;
18748;SDS011;9503;53.560;10.246;2023-06-24T07:24:09;6.28;;;3.67;;
18748;SDS011;9503;53.560;10.246;2023-06-24T07:26:35;5.82;;;3.65;;
18748;SDS011;9503;53.560;10.246;2023-06-24T07:29:02;5.97;;;3.90;;
18748;SDS011;9503;53.560;10.246;2023-06-24T07:31:33;6.50;;;4.70;;
18748;SDS011;9503;53.560;10.246;2023-06-24T07:34:00;9.00;;;4.07;;
18748;SDS011;9503;53.560;10.246;2023-06-24T07:36:26;5.97;;;3.80;;
18748;SDS011;9503;53.560;10.246;2023-06-24T07:38:53;8.02;;;4.10;;
18748;SDS011;9503;53.560;10.246;2023-06-24T07:41:20;7.05;;;3.95;;
18748;SDS011;9503;53.560;10.246;2023-06-24T07:43:46;6.00;;;3.95;;
18748;SDS011;9503;53.560;10.246;2023-06-24T07:46:13;5.28;;;3.97;;
18748;SDS011;9503;53.560;10.246;2023-06-24T07:48:41;7.50;;;4.32;;
18748;SDS011;9503;53.560;10.246;2023-06-24T07:51:08;7.45;;;3.92;;
18748;SDS011;9503;53.560;10.246;2023-06-24T07:53:35;6.47;;;4.43;;
18748;SDS011;9503;53.560;10.246;2023-06-24T07:56:01;7.05;;;4.45;;
18748;SDS011;9503;53.560;10.246;2023-06-24T07:58:28;6.95;;;4.20;;
18748;SDS011;9503;53.560;10.246;2023-06-24T08:00:54;7.95;;;4.60;;
18748;SDS011;9503;53.560;10.246;2023-06-24T08:03:21;5.60;;;4.20;;
18748;SDS011;9503;53.560;10.246;2023-06-24T08:05:49;5.40;;;3.95;;
18748;SDS011;9503;53.560;10.246;2023-06-24T08:08:16;5.75;;;3.80;;
18748;SDS011;9503;53.560;10.246;2023-06-24T08:10:44;4.38;;;4.00;;
18748;SDS011;9503;53.560;10.246;2023-06-24T08:13:11;3.85;;;3.45;;
18748;SDS011;9503;53.560;10.246;2023-06-24T08:15:37;5.50;;;3.38;;
18748;SDS011;9503;53.560;10.246;2023-06-24T08:18:04;4.72;;;3.80;;
18748;SDS011;9503;53.560;10.246;2023-06-24T08:20:31;6.45;;;3.90;;
18748;SDS011;9503;53.560;10.246;2023-06-24T08:22:59;6.00;;;4.03;;
18748;SDS011;9503;53.560;10.246;2023-06-24T08:25:25;8.50;;;3.92;;
18748;SDS011;9503;53.560;10.246;2023-06-24T08:27:52;5.25;;;4.22;;
18748;SDS011;9503;53.560;10.246;2023-06-24T08:30:18;5.90;;;3.92;;
18748;SDS011;9503;53.560;10.246;2023-06-24T08:32:45;4.25;;;3.85;;
18748;SDS011;9503;53.560;10.246;2023-06-24T08:35:12;4.70;;;3.60;;
18748;SDS011;9503;53.560;10.246;2023-06-24T08:37:39;6.35;;;3.92;;
18748;SDS011;9503;53.560;10.246;2023-06-24T08:40:07;5.75;;;3.67;;
18748;SDS011;9503;53.560;10.246;2023-06-24T08:42:34;6.40;;;3.97;;
18748;SDS011;9503;53.560;10.246;2023-06-24T08:45:01;7.07;;;4.40;;
18748;SDS011;9503;53.560;10.246;2023-06-24T08:47:28;5.43;;;3.80;;
18748;SDS011;9503;53.560;10.246;2023-06-24T08:49:58;8.10;;;4.50;;
18748;SDS011;9503;53.560;10.246;2023-06-24T08:52:29;7.50;;;5.22;;
18748;SDS011;9503;53.560;10.246;2023-06-24T08:55:01;9.57;;;5.10;;
18748;SDS011;9503;53.560;10.246;2023-06-24T08:57:30;7.32;;;4.63;;
18748;SDS011;9503;53.560;10.246;2023-06-24T08:59:57;5.55;;;4.70;;
18748;SDS011;9503;53.560;10.246;2023-06-24T09:02:24;6.93;;;5.10;;
18748;SDS011;9503;53.560;10.246;2023-06-24T09:04:50;8.77;;;4.82;;
18748;SDS011;9503;53.560;10.246;2023-06-24T09:07:24;7.85;;;4.53;;
18748;SDS011;9503;53.560;10.246;2023-06-24T09:09:52;10.27;;;5.22;;
18748;SDS011;9503;53.560;10.246;2023-06-24T09:12:18;6.28;;;4.30;;
18748;SDS011;9503;53.560;10.246;2023-06-24T09:14:48;8.00;;;4.80;;
18748;SDS011;9503;53.560;10.246;2023-06-24T09:17:16;7.13;;;5.20;;
18748;SDS011;9503;53.560;10.246;2023-06-24T09:19:43;7.40;;;4.72;;
18748;SDS011;9503;53.560;10.246;2023-06-24T09:22:10;7.43;;;4.65;;
18748;SDS011;9503;53.560;10.246;2023-06-24T09:24:42;6.90;;;4.80;;
18748;SDS011;9503;53.560;10.246;2023-06-24T09:27:11;7.65;;;5.20;;
18748;SDS011;9503;53.560;10.246;2023-06-24T09:29:40;7.63;;;5.15;;
18748;SDS011;9503;53.560;10.246;2023-06-24T09:32:09;6.03;;;5.05;;
18748;SDS011;9503;53.560;10.246;2023-06-24T09:34:36;6.78;;;5.68;;
18748;SDS011;9503;53.560;10.246;2023-06-24T09:37:04;7.55;;;4.63;;
18748;SDS011;9503;53.560;10.246;2023-06-24T09:39:35;8.48;;;5.85;;
18748;SDS011;9503;53.560;10.246;2023-06-24T09:42:04;9.07;;;5.95;;
18748;SDS011;9503;53.560;10.246;2023-06-24T09:44:32;7.18;;;5.40;;
18748;SDS011;9503;53.560;10.246;2023-06-24T09:46:59;7.80;;;5.90;;
18748;SDS011;9503;53.560;10.246;2023-06-24T09:49:28;6.75;;;4.72;;
18748;SDS011;9503;53.560;10.246;2023-06-24T09:51:55;7.30;;;5.10;;
18748;SDS011;9503;53.560;10.246;2023-06-24T09:54:24;9.65;;;5.55;;
18748;SDS011;9503;53.560;10.246;2023-06-24T09:56:52;7.68;;;4.80;;
18748;SDS011;9503;53.560;10.246;2023-06-24T09:59:20;8.40;;;5.30;;
18748;SDS011;9503;53.560;10.246;2023-06-24T10:01:48;7.80;;;5.35;;
18748;SDS011;9503;53.560;10.246;2023-06-24T10:04:16;6.55;;;4.97;;
18748;SDS011;9503;53.560;10.246;2023-06-24T10:06:45;5.65;;;4.65;;
18748;SDS011;9503;53.560;10.246;2023-06-24T10:09:12;7.25;;;4.43;;
18748;SDS011;9503;53.560;10.246;2023-06-24T10:11:42;8.73;;;4.50;;
18748;SDS011;9503;53.560;10.246;2023-06-24T10:14:09;5.25;;;4.07;;
18748;SDS011;9503;53.560;10.246;2023-06-24T10:16:35;5.28;;;4.07;;
18748;SDS011;9503;53.560;10.246;2023-06-24T10:19:02;6.53;;;4.45;;
18748;SDS011;9503;53.560;10.246;2023-06-24T10:24:27;6.40;;;4.57;;
18748;SDS011;9503;53.560;10.246;2023-06-24T10:26:55;6.22;;;3.60;;
18748;SDS011;9503;53.560;10.246;2023-06-24T10:29:33;4.70;;;3.47;;
18748;SDS011;9503;53.560;10.246;2023-06-24T10:32:02;6.68;;;4.50;;
18748;SDS011;9503;53.560;10.246;2023-06-24T10:34:31;5.28;;;4.38;;
18748;SDS011;9503;53.560;10.246;2023-06-24T10:37:08;5.85;;;4.20;;
18748;SDS011;9503;53.560;10.246;2023-06-24T10:39:36;5.35;;;4.13;;
18748;SDS011;9503;53.560;10.246;2023-06-24T10:42:24;7.10;;;4.40;;
18748;SDS011;9503;53.560;10.246;2023-06-24T10:44:52;6.22;;;4.57;;
18748;SDS011;9503;53.560;10.246;2023-06-24T10:47:21;5.72;;;4.15;;
18748;SDS011;9503;53.560;10.246;2023-06-24T10:49:48;7.22;;;4.78;;
18748;SDS011;9503;53.560;10.246;2023-06-24T10:52:16;6.93;;;4.70;;
18748;SDS011;9503;53.560;10.246;2023-06-24T10:54:45;8.18;;;5.00;;
18748;SDS011;9503;53.560;10.246;2023-06-24T10:57:12;4.63;;;4.20;;
18748;SDS011;9503;53.560;10.246;2023-06-24T10:59:39;5.75;;;4.63;;
18748;SDS011;9503;53.560;10.246;2023-06-24T11:02:07;5.82;;;4.72;;
18748;SDS011;9503;53.560;10.246;2023-06-24T11:04:41;6.13;;;4.78;;
18748;SDS011;9503;53.560;10.246;2023-06-24T11:07:08;7.15;;;3.97;;
18748;SDS011;9503;53.560;10.246;2023-06-24T11:09:37;6.45;;;4.10;;
18748;SDS011;9503;53.560;10.246;2023-06-24T11:12:03;5.38;;;4.30;;
18748;SDS011;9503;53.560;10.246;2023-06-24T11:14:32;6.35;;;4.28;;
18748;SDS011;9503;53.560;10.246;2023-06-24T11:17:00;4.50;;;4.07;;
18748;SDS011;9503;53.560;10.246;2023-06-24T11:19:27;5.22;;;4.63;;
18748;SDS011;9503;53.560;10.246;2023-06-24T11:21:54;5.20;;;4.15;;
18748;SDS011;9503;53.560;10.246;2023-06-24T11:24:25;6.05;;;4.40;;
18748;SDS011;9503;53.560;10.246;2023-06-24T11:26:53;5.80;;;4.43;;
18748;SDS011;9503;53.560;10.246;2023-06-24T11:29:20;6.40;;;4.22;;
18748;SDS011;9503;53.560;10.246;2023-06-24T11:31:46;6.75;;;4.22;;
18748;SDS011;9503;53.560;10.246;2023-06-24T11:34:14;9.05;;;4.25;;
18748;SDS011;9503;53.560;10.246;2023-06-24T11:36:41;5.18;;;4.20;;
18748;SDS011;9503;53.560;10.246;2023-06-24T11:39:08;6.68;;;4.35;;
18748;SDS011;9503;53.560;10.246;2023-06-24T11:41:36;5.68;;;4.68;;
18748;SDS011;9503;53.560;10.246;2023-06-24T11:44:05;5.45;;;4.20;;
18748;SDS011;9503;53.560;10.246;2023-06-24T11:46:32;5.97;;;4.15;;
18748;SDS011;9503;53.560;10.246;2023-06-24T11:49:03;4.95;;;4.10;;
18748;SDS011;9503;53.560;10.246;2023-06-24T11:51:30;6.80;;;4.10;;
18748;SDS011;9503;53.560;10.246;2023-06-24T11:53:58;6.65;;;3.95;;
18748;SDS011;9503;53.560;10.246;2023-06-24T11:56:33;4.53;;;3.60;;
18748;SDS011;9503;53.560;10.246;2023-06-24T11:59:01;6.20;;;4.30;;
18748;SDS011;9503;53.560;10.246;2023-06-24T12:01:31;4.65;;;3.80;;
18748;SDS011;9503;53.560;10.246;2023-06-24T12:03:59;5.30;;;4.20;;
18748;SDS011;9503;53.560;10.246;2023-06-24T12:06:26;6.68;;;5.13;;
18748;SDS011;9503;53.560;10.246;2023-06-24T12:08:53;5.05;;;4.22;;
18748;SDS011;9503;53.560;10.246;2023-06-24T12:11:19;4.55;;;4.03;;
18748;SDS011;9503;53.560;10.246;2023-06-24T12:13:46;5.90;;;4.75;;
18748;SDS011;9503;53.560;10.246;2023-06-24T12:16:12;6.28;;;4.25;;
18748;SDS011;9503;53.560;10.246;2023-06-24T12:18:40;8.98;;;4.50;;
18748;SDS011;9503;53.560;10.246;2023-06-24T12:21:07;4.93;;;3.88;;
18748;SDS011;9503;53.560;10.246;2023-06-24T12:23:34;7.53;;;4.72;;
18748;SDS011;9503;53.560;10.246;2023-06-24T12:26:00;4.55;;;4.15;;
18748;SDS011;9503;53.560;10.246;2023-06-24T12:28:27;6.35;;;3.97;;
18748;SDS011;9503;53.560;10.246;2023-06-24T12:30:53;4.00;;;3.70;;
18748;SDS011;9503;53.560;10.246;2023-06-24T12:33:20;4.45;;;4.05;;
18748;SDS011;9503;53.560;10.246;2023-06-24T12:35:49;5.07;;;3.78;;
18748;SDS011;9503;53.560;10.246;2023-06-24T12:38:15;5.28;;;4.88;;
18748;SDS011;9503;53.560;10.246;2023-06-24T12:40:42;4.72;;;4.32;;
18748;SDS011;9503;53.560;10.246;2023-06-24T12:43:10;4.85;;;4.10;;
18748;SDS011;9503;53.560;10.246;2023-06-24T12:45:37;4.78;;;4.38;;
18748;SDS011;9503;53.560;10.246;2023-06-24T12:48:04;4.90;;;4.40;;
18748;SDS011;9503;53.560;10.246;2023-06-24T12:50:31;4.88;;;4.18;;
18748;SDS011;9503;53.560;10.246;2023-06-24T12:52:59;4.53;;;4.13;;
18748;SDS011;9503;53.560;10.246;2023-06-24T12:55:25;4.88;;;4.38;;
18748;SDS011;9503;53.560;10.246;2023-06-24T12:57:52;5.07;;;4.47;;
18748;SDS011;9503;53.560;10.246;2023-06-24T13:00:19;5.20;;;4.30;;
18748;SDS011;9503;53.560;10.246;2023-06-24T13:02:46;5.43;;;4.35;;
18748;SDS011;9503;53.560;10.246;2023-06-24T13:05:14;6.30;;;4.60;;
18748;SDS011;9503;53.560;10.246;2023-06-24T13:07:40;4.72;;;3.92;;
18748;SDS011;9503;53.560;10.246;2023-06-24T13:10:09;5.00;;;3.72;;
18748;SDS011;9503;53.560;10.246;2023-06-24T13:12:36;4.53;;;3.88;;
18748;SDS011;9503;53.560;10.246;2023-06-24T13:15:03;4.80;;;4.28;;
18748;SDS011;9503;53.560;10.246;2023-06-24T13:17:32;4.68;;;4.20;;
18748;SDS011;9503;53.560;10.246;2023-06-24T13:19:59;4.78;;;4.28;;
18748;SDS011;9503;53.560;10.246;2023-06-24T13:22:26;4.72;;;4.30;;
18748;SDS011;9503;53.560;10.246;2023-06-24T13:24:53;5.78;;;4.40;;
18748;SDS011;9503;53.560;10.246;2023-06-24T13:27:21;6.63;;;4.43;;
18748;SDS011;9503;53.560;10.246;2023-06-24T13:29:48;4.38;;;3.55;;
18748;SDS011;9503;53.560;10.246;2023-06-24T13:32:14;4.10;;;3.80;;
18748;SDS011;9503;53.560;10.246;2023-06-24T13:34:41;5.30;;;4.07;;
18748;SDS011;9503;53.560;10.246;2023-06-24T13:37:07;5.28;;;3.80;;
18748;SDS011;9503;53.560;10.246;2023-06-24T13:39:34;5.60;;;3.90;;
18748;SDS011;9503;53.560;10.246;2023-06-24T13:42:01;6.55;;;4.07;;
18748;SDS011;9503;53.560;10.246;2023-06-24T13:44:29;5.28;;;4.47;;
18748;SDS011;9503;53.560;10.246;2023-06-24T13:46:56;6.53;;;4.43;;
18748;SDS011;9503;53.560;10.246;2023-06-24T13:49:22;5.15;;;4.05;;
18748;SDS011;9503;53.560;10.246;2023-06-24T13:51:49;5.75;;;4.30;;
18748;SDS011;9503;53.560;10.246;2023-06-24T13:54:15;4.60;;;3.90;;
18748;SDS011;9503;53.560;10.246;2023-06-24T13:56:42;4.25;;;3.65;;
18748;SDS011;9503;53.560;10.246;2023-06-24T13:59:09;4.68;;;4.22;;
18748;SDS011;9503;53.560;10.246;2023-06-24T14:01:37;4.55;;;4.15;;
18748;SDS011;9503;53.560;10.246;2023-06-24T14:04:04;4.75;;;3.80;;
18748;SDS011;9503;53.560;10.246;2023-06-24T14:06:31;5.63;;;3.75;;
18748;SDS011;9503;53.560;10.246;2023-06-24T14:08:57;4.55;;;3.50;;
18748;SDS011;9503;53.560;10.246;2023-06-24T14:11:24;4.45;;;3.53;;
18748;SDS011;9503;53.560;10.246;2023-06-24T14:13:51;7.57;;;4.53;;
18748;SDS011;9503;53.560;10.246;2023-06-24T14:16:17;5.57;;;3.75;;
18748;SDS011;9503;53.560;10.246;2023-06-24T14:18:45;5.05;;;3.78;;
18748;SDS011;9503;53.560;10.246;2023-06-24T14:21:12;4.60;;;4.10;;
18748;SDS011;9503;53.560;10.246;2023-06-24T14:23:38;4.90;;;4.28;;
18748;SDS011;9503;53.560;10.246;2023-06-24T14:26:06;4.57;;;4.13;;
18748;SDS011;9503;53.560;10.246;2023-06-24T14:28:32;6.70;;;4.10;;
18748;SDS011;9503;53.560;10.246;2023-06-24T14:30:59;7.75;;;3.92;;
18748;SDS011;9503;53.560;10.246;2023-06-24T14:33:26;4.45;;;3.70;;
18748;SDS011;9503;53.560;10.246;2023-06-24T14:35:54;5.43;;;3.80;;
18748;SDS011;9503;53.560;10.246;2023-06-24T14:38:20;4.50;;;4.10;;
18748;SDS011;9503;53.560;10.246;2023-06-24T14:40:47;7.35;;;3.72;;
18748;SDS011;9503;53.560;10.246;2023-06-24T14:43:17;5.28;;;4.00;;
18748;SDS011;9503;53.560;10.246;2023-06-24T14:45:44;5.97;;;4.05;;
18748;SDS011;9503;53.560;10.246;2023-06-24T14:48:10;5.95;;;4.05;;